sensor_id;sensor_type;location;lat;lon;timestamp;P1;durP1;ratioP1;P2;durP2;ratioP2
51475;SDS011;37554;50.362;7.568;2023-10-19T00:00:45;1.25;;;1.10;;
51475;SDS011;37554;50.362;7.568;2023-10-19T00:03:14;2.13;;;1.10;;
51475;SDS011;37554;50.362;7.568;2023-10-19T00:05:40;1.42;;;1.13;;
51475;SDS011;37554;50.362;7.568;2023-10-19T00:08:12;1.65;;;1.10;;
51475;SDS011;37554;50.362;7.568;2023-10-19T00:10:39;1.90;;;1.15;;
51475;SDS011;37554;50.362;7.568;2023-10-19T00:13:07;1.35;;;0.98;;
51475;SDS011;37554;50.362;7.568;2023-10-19T00:15:34;1.30;;;0.98;;
51475;SDS011;37554;50.362;7.568;2023-10-19T00:18:05;1.30;;;1.10;;
51475;SDS011;37554;50.362;7.568;2023-10-19T00:20:52;1.40;;;1.10;;
51475;SDS011;37554;50.362;7.568;2023-10-19T00:23:22;1.02;;;0.93;;
51475;SDS011;37554;50.362;7.568;2023-10-19T00:25:58;2.13;;;1.23;;
51475;SDS011;37554;50.362;7.568;2023-10-19T00:28:25;1.25;;;1.15;;
51475;SDS011;37554;50.362;7.568;2023-10-19T00:30:52;2.33;;;0.90;;
51475;SDS011;37554;50.362;7.568;2023-10-19T00:33:18;1.05;;;0.93;;
51475;SDS011;37554;50.362;7.568;2023-10-19T00:35:46;1.05;;;0.95;;
51475;SDS011;37554;50.362;7.568;2023-10-19T00:38:12;1.30;;;1.20;;
51475;SDS011;37554;50.362;7.568;2023-10-19T00:40:57;1.15;;;1.00;;
51475;SDS011;37554;50.362;7.568;2023-10-19T00:43:32;1.40;;;1.30;;
51475;SDS011;37554;50.362;7.568;2023-10-19T00:46:03;1.42;;;1.13;;
51475;SDS011;37554;50.362;7.568;2023-10-19T00:48:35;0.70;;;0.70;;
51475;SDS011;37554;50.362;7.568;2023-10-19T00:51:02;1.08;;;0.98;;
51475;SDS011;37554;50.362;7.568;2023-10-19T00:53:46;1.40;;;1.05;;
51475;SDS011;37554;50.362;7.568;2023-10-19T00:56:13;1.00;;;0.90;;
51475;SDS011;37554;50.362;7.568;2023-10-19T00:58:43;1.55;;;1.00;;
51475;SDS011;37554;50.362;7.568;2023-10-19T01:01:17;1.13;;;1.02;;
51475;SDS011;37554;50.362;7.568;2023-10-19T01:03:46;1.40;;;1.30;;
51475;SDS011;37554;50.362;7.568;2023-10-19T01:06:17;1.52;;;1.00;;
51475;SDS011;37554;50.362;7.568;2023-10-19T01:08:45;1.15;;;0.93;;
51475;SDS011;37554;50.362;7.568;2023-10-19T01:11:11;1.27;;;0.88;;
51475;SDS011;37554;50.362;7.568;2023-10-19T01:13:40;0.88;;;0.77;;
51475;SDS011;37554;50.362;7.568;2023-10-19T01:16:13;1.15;;;0.93;;
51475;SDS011;37554;50.362;7.568;2023-10-19T01:18:49;1.52;;;1.15;;
51475;SDS011;37554;50.362;7.568;2023-10-19T01:23:50;1.00;;;0.90;;
51475;SDS011;37554;50.362;7.568;2023-10-19T01:26:15;0.90;;;0.65;;
51475;SDS011;37554;50.362;7.568;2023-10-19T01:28:51;1.02;;;0.90;;
51475;SDS011;37554;50.362;7.568;2023-10-19T01:31:26;1.95;;;0.80;;
51475;SDS011;37554;50.362;7.568;2023-10-19T01:33:54;1.15;;;1.00;;
51475;SDS011;37554;50.362;7.568;2023-10-19T01:36:26;0.85;;;0.80;;
51475;SDS011;37554;50.362;7.568;2023-10-19T01:38:55;0.85;;;0.70;;
51475;SDS011;37554;50.362;7.568;2023-10-19T01:41:26;0.80;;;0.60;;
51475;SDS011;37554;50.362;7.568;2023-10-19T01:43:52;1.23;;;0.70;;
51475;SDS011;37554;50.362;7.568;2023-10-19T01:46:19;1.58;;;1.35;;
51475;SDS011;37554;50.362;7.568;2023-10-19T01:48:59;1.00;;;0.88;;
51475;SDS011;37554;50.362;7.568;2023-10-19T01:51:27;0.70;;;0.70;;
51475;SDS011;37554;50.362;7.568;2023-10-19T01:53:54;0.70;;;0.57;;
51475;SDS011;37554;50.362;7.568;2023-10-19T01:56:21;1.20;;;1.10;;
51475;SDS011;37554;50.362;7.568;2023-10-19T01:58:47;1.45;;;0.85;;
51475;SDS011;37554;50.362;7.568;2023-10-19T02:01:14;1.23;;;0.90;;
51475;SDS011;37554;50.362;7.568;2023-10-19T02:03:53;0.90;;;0.80;;
51475;SDS011;37554;50.362;7.568;2023-10-19T02:06:24;1.65;;;0.85;;
51475;SDS011;37554;50.362;7.568;2023-10-19T02:09:12;0.98;;;0.85;;
51475;SDS011;37554;50.362;7.568;2023-10-19T02:11:44;1.33;;;0.70;;
51475;SDS011;37554;50.362;7.568;2023-10-19T02:14:11;1.10;;;0.88;;
51475;SDS011;37554;50.362;7.568;2023-10-19T02:16:40;1.50;;;0.90;;
51475;SDS011;37554;50.362;7.568;2023-10-19T02:19:07;1.08;;;0.73;;
51475;SDS011;37554;50.362;7.568;2023-10-19T02:21:32;1.08;;;0.90;;
51475;SDS011;37554;50.362;7.568;2023-10-19T02:24:03;1.20;;;0.70;;
51475;SDS011;37554;50.362;7.568;2023-10-19T02:26:29;1.00;;;0.80;;
51475;SDS011;37554;50.362;7.568;2023-10-19T02:28:56;0.98;;;0.80;;
51475;SDS011;37554;50.362;7.568;2023-10-19T02:31:23;0.90;;;0.77;;
51475;SDS011;37554;50.362;7.568;2023-10-19T02:33:53;1.30;;;0.65;;
51475;SDS011;37554;50.362;7.568;2023-10-19T02:36:28;0.95;;;0.80;;
51475;SDS011;37554;50.362;7.568;2023-10-19T02:38:58;1.33;;;0.70;;
51475;SDS011;37554;50.362;7.568;2023-10-19T02:41:38;1.13;;;0.70;;
51475;SDS011;37554;50.362;7.568;2023-10-19T02:44:04;0.70;;;0.60;;
51475;SDS011;37554;50.362;7.568;2023-10-19T02:46:35;0.80;;;0.70;;
51475;SDS011;37554;50.362;7.568;2023-10-19T02:49:03;0.70;;;0.70;;
51475;SDS011;37554;50.362;7.568;2023-10-19T02:51:35;1.58;;;0.90;;
51475;SDS011;37554;50.362;7.568;2023-10-19T02:54:02;1.00;;;0.80;;
51475;SDS011;37554;50.362;7.568;2023-10-19T02:56:28;0.82;;;0.80;;
51475;SDS011;37554;50.362;7.568;2023-10-19T02:58:55;1.17;;;0.85;;
51475;SDS011;37554;50.362;7.568;2023-10-19T03:01:27;0.90;;;0.77;;
51475;SDS011;37554;50.362;7.568;2023-10-19T03:03:59;0.85;;;0.80;;
51475;SDS011;37554;50.362;7.568;2023-10-19T03:06:27;1.13;;;0.93;;
51475;SDS011;37554;50.362;7.568;2023-10-19T03:09:03;1.00;;;0.70;;
51475;SDS011;37554;50.362;7.568;2023-10-19T03:11:38;1.00;;;0.70;;
51475;SDS011;37554;50.362;7.568;2023-10-19T03:14:06;1.00;;;0.75;;
51475;SDS011;37554;50.362;7.568;2023-10-19T03:16:33;1.25;;;1.00;;
51475;SDS011;37554;50.362;7.568;2023-10-19T03:19:00;0.90;;;0.80;;
51475;SDS011;37554;50.362;7.568;2023-10-19T03:21:25;1.33;;;0.95;;
51475;SDS011;37554;50.362;7.568;2023-10-19T03:23:58;0.70;;;0.70;;
51475;SDS011;37554;50.362;7.568;2023-10-19T03:26:26;1.10;;;0.80;;
51475;SDS011;37554;50.362;7.568;2023-10-19T03:28:55;1.13;;;0.80;;
51475;SDS011;37554;50.362;7.568;2023-10-19T03:31:24;1.42;;;0.80;;
51475;SDS011;37554;50.362;7.568;2023-10-19T03:33:50;1.10;;;0.80;;
51475;SDS011;37554;50.362;7.568;2023-10-19T03:36:22;0.90;;;0.88;;
51475;SDS011;37554;50.362;7.568;2023-10-19T03:38:49;0.90;;;0.70;;
51475;SDS011;37554;50.362;7.568;2023-10-19T03:41:16;1.13;;;0.80;;
51475;SDS011;37554;50.362;7.568;2023-10-19T03:43:47;1.30;;;0.82;;
51475;SDS011;37554;50.362;7.568;2023-10-19T03:46:13;1.33;;;0.90;;
51475;SDS011;37554;50.362;7.568;2023-10-19T03:48:49;1.70;;;1.00;;
51475;SDS011;37554;50.362;7.568;2023-10-19T03:51:15;1.02;;;0.80;;
51475;SDS011;37554;50.362;7.568;2023-10-19T03:53:42;0.88;;;0.80;;
51475;SDS011;37554;50.362;7.568;2023-10-19T03:56:19;1.30;;;0.80;;
51475;SDS011;37554;50.362;7.568;2023-10-19T03:58:45;0.88;;;0.77;;
51475;SDS011;37554;50.362;7.568;2023-10-19T04:01:15;1.10;;;1.00;;
51475;SDS011;37554;50.362;7.568;2023-10-19T04:03:41;1.40;;;1.13;;
51475;SDS011;37554;50.362;7.568;2023-10-19T04:06:08;1.13;;;1.02;;
51475;SDS011;37554;50.362;7.568;2023-10-19T04:08:39;0.85;;;0.80;;
51475;SDS011;37554;50.362;7.568;2023-10-19T04:11:05;1.00;;;0.90;;
51475;SDS011;37554;50.362;7.568;2023-10-19T04:13:37;1.63;;;1.17;;
51475;SDS011;37554;50.362;7.568;2023-10-19T04:16:03;1.00;;;0.90;;
51475;SDS011;37554;50.362;7.568;2023-10-19T04:18:34;2.25;;;0.90;;
51475;SDS011;37554;50.362;7.568;2023-10-19T04:21:00;1.27;;;0.90;;
51475;SDS011;37554;50.362;7.568;2023-10-19T04:23:28;1.48;;;1.10;;
51475;SDS011;37554;50.362;7.568;2023-10-19T04:25:54;0.80;;;0.80;;
51475;SDS011;37554;50.362;7.568;2023-10-19T04:28:23;0.98;;;0.85;;
51475;SDS011;37554;50.362;7.568;2023-10-19T04:30:58;0.80;;;0.80;;
51475;SDS011;37554;50.362;7.568;2023-10-19T04:33:31;1.75;;;1.13;;
51475;SDS011;37554;50.362;7.568;2023-10-19T04:35:58;1.90;;;1.20;;
51475;SDS011;37554;50.362;7.568;2023-10-19T04:38:26;1.15;;;1.00;;
51475;SDS011;37554;50.362;7.568;2023-10-19T04:40:53;1.08;;;0.73;;
51475;SDS011;37554;50.362;7.568;2023-10-19T04:43:18;1.38;;;0.80;;
51475;SDS011;37554;50.362;7.568;2023-10-19T04:45:46;0.85;;;0.80;;
51475;SDS011;37554;50.362;7.568;2023-10-19T04:48:12;1.10;;;1.00;;
51475;SDS011;37554;50.362;7.568;2023-10-19T04:50:37;0.95;;;0.80;;
51475;SDS011;37554;50.362;7.568;2023-10-19T04:53:04;0.80;;;0.80;;
51475;SDS011;37554;50.362;7.568;2023-10-19T04:55:30;1.60;;;0.90;;
51475;SDS011;37554;50.362;7.568;2023-10-19T04:57:56;2.10;;;0.88;;
51475;SDS011;37554;50.362;7.568;2023-10-19T05:00:22;1.45;;;1.05;;
51475;SDS011;37554;50.362;7.568;2023-10-19T05:02:49;1.27;;;1.08;;
51475;SDS011;37554;50.362;7.568;2023-10-19T05:05:17;1.17;;;0.88;;
51475;SDS011;37554;50.362;7.568;2023-10-19T05:07:43;1.63;;;0.90;;
51475;SDS011;37554;50.362;7.568;2023-10-19T05:10:08;1.42;;;1.00;;
51475;SDS011;37554;50.362;7.568;2023-10-19T05:12:34;1.17;;;1.08;;
51475;SDS011;37554;50.362;7.568;2023-10-19T05:15:00;1.63;;;0.90;;
51475;SDS011;37554;50.362;7.568;2023-10-19T05:17:25;1.38;;;1.02;;
51475;SDS011;37554;50.362;7.568;2023-10-19T05:19:52;1.65;;;0.80;;
51475;SDS011;37554;50.362;7.568;2023-10-19T05:22:18;1.23;;;1.10;;
51475;SDS011;37554;50.362;7.568;2023-10-19T05:24:44;1.35;;;1.15;;
51475;SDS011;37554;50.362;7.568;2023-10-19T05:27:10;1.17;;;1.00;;
51475;SDS011;37554;50.362;7.568;2023-10-19T05:29:37;1.42;;;0.88;;
51475;SDS011;37554;50.362;7.568;2023-10-19T05:32:03;1.58;;;1.20;;
51475;SDS011;37554;50.362;7.568;2023-10-19T05:34:29;1.67;;;1.10;;
51475;SDS011;37554;50.362;7.568;2023-10-19T05:36:57;3.88;;;1.90;;
51475;SDS011;37554;50.362;7.568;2023-10-19T05:39:24;4.60;;;3.35;;
51475;SDS011;37554;50.362;7.568;2023-10-19T05:41:53;3.97;;;3.30;;
51475;SDS011;37554;50.362;7.568;2023-10-19T05:44:20;3.83;;;3.53;;
51475;SDS011;37554;50.362;7.568;2023-10-19T05:46:46;3.97;;;3.60;;
51475;SDS011;37554;50.362;7.568;2023-10-19T05:49:12;4.13;;;3.67;;
51475;SDS011;37554;50.362;7.568;2023-10-19T05:51:38;3.97;;;3.42;;
51475;SDS011;37554;50.362;7.568;2023-10-19T05:54:04;5.22;;;2.33;;
51475;SDS011;37554;50.362;7.568;2023-10-19T05:56:30;2.63;;;2.42;;
51475;SDS011;37554;50.362;7.568;2023-10-19T05:58:56;2.65;;;2.00;;
51475;SDS011;37554;50.362;7.568;2023-10-19T06:01:23;3.40;;;1.88;;
51475;SDS011;37554;50.362;7.568;2023-10-19T06:03:49;2.45;;;1.92;;
51475;SDS011;37554;50.362;7.568;2023-10-19T06:06:15;3.47;;;1.92;;
51475;SDS011;37554;50.362;7.568;2023-10-19T06:08:41;2.65;;;1.58;;
51475;SDS011;37554;50.362;7.568;2023-10-19T06:11:06;2.67;;;1.80;;
51475;SDS011;37554;50.362;7.568;2023-10-19T06:13:32;1.77;;;1.67;;
51475;SDS011;37554;50.362;7.568;2023-10-19T06:15:58;2.10;;;1.55;;
51475;SDS011;37554;50.362;7.568;2023-10-19T06:18:23;3.83;;;1.58;;
51475;SDS011;37554;50.362;7.568;2023-10-19T06:20:49;2.13;;;1.60;;
51475;SDS011;37554;50.362;7.568;2023-10-19T06:23:16;2.85;;;1.60;;
51475;SDS011;37554;50.362;7.568;2023-10-19T06:25:43;2.17;;;1.65;;
51475;SDS011;37554;50.362;7.568;2023-10-19T06:28:08;3.00;;;1.90;;
51475;SDS011;37554;50.362;7.568;2023-10-19T06:30:36;1.95;;;1.60;;
51475;SDS011;37554;50.362;7.568;2023-10-19T06:33:01;2.20;;;1.60;;
51475;SDS011;37554;50.362;7.568;2023-10-19T06:35:27;2.80;;;1.70;;
51475;SDS011;37554;50.362;7.568;2023-10-19T06:37:56;3.03;;;1.60;;
51475;SDS011;37554;50.362;7.568;2023-10-19T06:40:23;1.90;;;1.58;;
51475;SDS011;37554;50.362;7.568;2023-10-19T06:42:51;2.30;;;1.60;;
51475;SDS011;37554;50.362;7.568;2023-10-19T06:45:20;2.47;;;1.65;;
51475;SDS011;37554;50.362;7.568;2023-10-19T06:47:46;3.50;;;2.20;;
51475;SDS011;37554;50.362;7.568;2023-10-19T06:50:14;2.00;;;1.45;;
51475;SDS011;37554;50.362;7.568;2023-10-19T06:52:45;2.28;;;1.90;;
51475;SDS011;37554;50.362;7.568;2023-10-19T06:55:13;3.08;;;1.60;;
51475;SDS011;37554;50.362;7.568;2023-10-19T06:57:45;2.30;;;1.58;;
51475;SDS011;37554;50.362;7.568;2023-10-19T07:00:15;3.80;;;1.65;;
51475;SDS011;37554;50.362;7.568;2023-10-19T07:02:44;2.70;;;1.70;;
51475;SDS011;37554;50.362;7.568;2023-10-19T07:05:11;3.25;;;1.98;;
51475;SDS011;37554;50.362;7.568;2023-10-19T07:07:41;2.40;;;1.77;;
51475;SDS011;37554;50.362;7.568;2023-10-19T07:10:17;2.92;;;1.75;;
51475;SDS011;37554;50.362;7.568;2023-10-19T07:12:44;2.75;;;1.50;;
51475;SDS011;37554;50.362;7.568;2023-10-19T07:15:11;3.20;;;1.58;;
51475;SDS011;37554;50.362;7.568;2023-10-19T07:17:44;1.50;;;1.20;;
51475;SDS011;37554;50.362;7.568;2023-10-19T07:20:11;2.15;;;1.63;;
51475;SDS011;37554;50.362;7.568;2023-10-19T07:22:50;1.85;;;1.50;;
51475;SDS011;37554;50.362;7.568;2023-10-19T07:25:31;1.60;;;1.40;;
51475;SDS011;37554;50.362;7.568;2023-10-19T07:28:06;6.30;;;2.05;;
51475;SDS011;37554;50.362;7.568;2023-10-19T07:30:31;3.58;;;2.03;;
51475;SDS011;37554;50.362;7.568;2023-10-19T07:32:57;6.00;;;2.03;;
51475;SDS011;37554;50.362;7.568;2023-10-19T07:35:23;4.75;;;1.98;;
51475;SDS011;37554;50.362;7.568;2023-10-19T07:37:52;3.20;;;2.00;;
51475;SDS011;37554;50.362;7.568;2023-10-19T07:40:19;4.40;;;1.85;;
51475;SDS011;37554;50.362;7.568;2023-10-19T07:42:45;3.08;;;1.70;;
51475;SDS011;37554;50.362;7.568;2023-10-19T07:45:12;4.25;;;2.00;;
51475;SDS011;37554;50.362;7.568;2023-10-19T07:47:40;4.72;;;1.80;;
51475;SDS011;37554;50.362;7.568;2023-10-19T07:50:07;4.00;;;1.70;;
51475;SDS011;37554;50.362;7.568;2023-10-19T07:52:37;2.70;;;1.70;;
51475;SDS011;37554;50.362;7.568;2023-10-19T07:55:04;2.88;;;1.65;;
51475;SDS011;37554;50.362;7.568;2023-10-19T07:57:32;1.88;;;1.58;;
51475;SDS011;37554;50.362;7.568;2023-10-19T07:59:59;2.10;;;1.80;;
51475;SDS011;37554;50.362;7.568;2023-10-19T08:02:24;3.05;;;1.38;;
51475;SDS011;37554;50.362;7.568;2023-10-19T08:04:50;1.63;;;1.30;;
51475;SDS011;37554;50.362;7.568;2023-10-19T08:07:17;4.13;;;1.30;;
51475;SDS011;37554;50.362;7.568;2023-10-19T08:09:43;2.50;;;1.85;;
51475;SDS011;37554;50.362;7.568;2023-10-19T08:12:09;2.42;;;1.30;;
51475;SDS011;37554;50.362;7.568;2023-10-19T08:14:35;1.60;;;1.42;;
51475;SDS011;37554;50.362;7.568;2023-10-19T08:17:01;2.08;;;1.58;;
51475;SDS011;37554;50.362;7.568;2023-10-19T08:19:28;3.03;;;1.27;;
51475;SDS011;37554;50.362;7.568;2023-10-19T08:21:56;3.80;;;1.70;;
51475;SDS011;37554;50.362;7.568;2023-10-19T08:24:22;2.08;;;1.48;;
51475;SDS011;37554;50.362;7.568;2023-10-19T08:26:48;3.20;;;1.50;;
51475;SDS011;37554;50.362;7.568;2023-10-19T08:29:15;2.35;;;1.30;;
51475;SDS011;37554;50.362;7.568;2023-10-19T08:31:42;2.78;;;1.40;;
51475;SDS011;37554;50.362;7.568;2023-10-19T08:34:10;2.35;;;1.23;;
51475;SDS011;37554;50.362;7.568;2023-10-19T08:36:36;2.88;;;1.23;;
51475;SDS011;37554;50.362;7.568;2023-10-19T08:39:06;2.00;;;1.05;;
51475;SDS011;37554;50.362;7.568;2023-10-19T08:41:33;2.25;;;1.10;;
51475;SDS011;37554;50.362;7.568;2023-10-19T08:44:03;2.00;;;1.20;;
51475;SDS011;37554;50.362;7.568;2023-10-19T08:46:35;2.85;;;1.17;;
51475;SDS011;37554;50.362;7.568;2023-10-19T08:49:06;1.35;;;1.00;;
51475;SDS011;37554;50.362;7.568;2023-10-19T08:51:35;2.33;;;1.50;;
51475;SDS011;37554;50.362;7.568;2023-10-19T08:54:02;1.83;;;1.33;;
51475;SDS011;37554;50.362;7.568;2023-10-19T08:56:30;1.90;;;1.20;;
51475;SDS011;37554;50.362;7.568;2023-10-19T08:58:58;2.03;;;1.25;;
51475;SDS011;37554;50.362;7.568;2023-10-19T09:01:26;3.00;;;1.17;;
51475;SDS011;37554;50.362;7.568;2023-10-19T09:03:53;1.67;;;1.27;;
51475;SDS011;37554;50.362;7.568;2023-10-19T09:06:21;1.90;;;1.15;;
51475;SDS011;37554;50.362;7.568;2023-10-19T09:08:47;5.88;;;1.30;;
51475;SDS011;37554;50.362;7.568;2023-10-19T09:11:14;4.28;;;1.13;;
51475;SDS011;37554;50.362;7.568;2023-10-19T09:13:49;1.80;;;1.13;;
51475;SDS011;37554;50.362;7.568;2023-10-19T09:16:18;2.83;;;1.30;;
51475;SDS011;37554;50.362;7.568;2023-10-19T09:18:47;3.53;;;1.23;;
51475;SDS011;37554;50.362;7.568;2023-10-19T09:21:17;2.15;;;1.20;;
51475;SDS011;37554;50.362;7.568;2023-10-19T09:23:53;1.90;;;1.25;;
51475;SDS011;37554;50.362;7.568;2023-10-19T09:26:22;2.50;;;1.60;;
51475;SDS011;37554;50.362;7.568;2023-10-19T09:28:50;2.42;;;1.25;;
51475;SDS011;37554;50.362;7.568;2023-10-19T09:31:17;2.40;;;1.23;;
51475;SDS011;37554;50.362;7.568;2023-10-19T09:33:46;2.00;;;1.13;;
51475;SDS011;37554;50.362;7.568;2023-10-19T09:36:14;2.75;;;1.13;;
51475;SDS011;37554;50.362;7.568;2023-10-19T09:38:46;2.90;;;1.00;;
51475;SDS011;37554;50.362;7.568;2023-10-19T09:41:19;2.47;;;1.13;;
51475;SDS011;37554;50.362;7.568;2023-10-19T09:43:47;2.75;;;1.13;;
51475;SDS011;37554;50.362;7.568;2023-10-19T09:46:26;2.13;;;1.27;;
51475;SDS011;37554;50.362;7.568;2023-10-19T09:48:54;3.28;;;1.40;;
51475;SDS011;37554;50.362;7.568;2023-10-19T09:51:19;3.15;;;1.40;;
51475;SDS011;37554;50.362;7.568;2023-10-19T09:53:49;2.00;;;1.20;;
51475;SDS011;37554;50.362;7.568;2023-10-19T09:56:42;4.15;;;1.10;;
51475;SDS011;37554;50.362;7.568;2023-10-19T09:59:15;2.33;;;1.35;;
51475;SDS011;37554;50.362;7.568;2023-10-19T10:04:36;3.53;;;1.40;;
51475;SDS011;37554;50.362;7.568;2023-10-19T10:07:01;4.50;;;1.40;;
51475;SDS011;37554;50.362;7.568;2023-10-19T10:09:31;2.15;;;1.00;;
51475;SDS011;37554;50.362;7.568;2023-10-19T10:12:18;3.60;;;1.45;;
51475;SDS011;37554;50.362;7.568;2023-10-19T10:15:04;2.30;;;1.10;;
51475;SDS011;37554;50.362;7.568;2023-10-19T10:17:38;3.53;;;1.20;;
51475;SDS011;37554;50.362;7.568;2023-10-19T10:22:39;2.10;;;1.13;;
51475;SDS011;37554;50.362;7.568;2023-10-19T10:25:08;2.78;;;1.48;;
51475;SDS011;37554;50.362;7.568;2023-10-19T10:27:51;2.50;;;1.33;;
51475;SDS011;37554;50.362;7.568;2023-10-19T10:30:17;3.03;;;1.33;;
51475;SDS011;37554;50.362;7.568;2023-10-19T10:38:06;2.33;;;1.38;;
51475;SDS011;37554;50.362;7.568;2023-10-19T10:40:47;2.97;;;1.40;;
51475;SDS011;37554;50.362;7.568;2023-10-19T10:43:13;3.17;;;1.40;;
51475;SDS011;37554;50.362;7.568;2023-10-19T10:45:40;1.85;;;1.10;;
51475;SDS011;37554;50.362;7.568;2023-10-19T10:48:15;4.18;;;1.40;;
51475;SDS011;37554;50.362;7.568;2023-10-19T10:50:42;4.03;;;2.05;;
51475;SDS011;37554;50.362;7.568;2023-10-19T10:53:08;3.42;;;2.38;;
51475;SDS011;37554;50.362;7.568;2023-10-19T10:55:36;7.07;;;1.83;;
51475;SDS011;37554;50.362;7.568;2023-10-19T10:58:02;6.20;;;2.38;;
51475;SDS011;37554;50.362;7.568;2023-10-19T11:00:28;4.45;;;1.73;;
51475;SDS011;37554;50.362;7.568;2023-10-19T11:02:59;4.10;;;1.92;;
51475;SDS011;37554;50.362;7.568;2023-10-19T11:05:29;5.18;;;1.83;;
51475;SDS011;37554;50.362;7.568;2023-10-19T11:08:11;3.83;;;1.88;;
51475;SDS011;37554;50.362;7.568;2023-10-19T11:10:38;4.47;;;1.60;;
51475;SDS011;37554;50.362;7.568;2023-10-19T11:13:07;5.20;;;1.80;;
51475;SDS011;37554;50.362;7.568;2023-10-19T11:15:38;1.88;;;1.38;;
51475;SDS011;37554;50.362;7.568;2023-10-19T11:18:12;3.13;;;1.63;;
51475;SDS011;37554;50.362;7.568;2023-10-19T11:20:56;3.50;;;1.30;;
51475;SDS011;37554;50.362;7.568;2023-10-19T11:26:10;6.78;;;2.15;;
51475;SDS011;37554;50.362;7.568;2023-10-19T11:28:37;4.07;;;2.08;;
51475;SDS011;37554;50.362;7.568;2023-10-19T11:31:19;6.18;;;2.47;;
51475;SDS011;37554;50.362;7.568;2023-10-19T11:33:52;6.88;;;2.20;;
51475;SDS011;37554;50.362;7.568;2023-10-19T11:36:20;3.88;;;2.05;;
51475;SDS011;37554;50.362;7.568;2023-10-19T11:38:48;3.65;;;2.03;;
51475;SDS011;37554;50.362;7.568;2023-10-19T11:41:16;3.90;;;1.60;;
51475;SDS011;37554;50.362;7.568;2023-10-19T11:43:44;4.20;;;1.58;;
51475;SDS011;37554;50.362;7.568;2023-10-19T11:46:11;2.22;;;1.48;;
51475;SDS011;37554;50.362;7.568;2023-10-19T11:48:37;2.55;;;1.83;;
51475;SDS011;37554;50.362;7.568;2023-10-19T11:51:05;3.13;;;1.73;;
51475;SDS011;37554;50.362;7.568;2023-10-19T11:53:34;2.50;;;1.80;;
51475;SDS011;37554;50.362;7.568;2023-10-19T11:56:07;2.97;;;1.58;;
51475;SDS011;37554;50.362;7.568;2023-10-19T12:01:03;3.33;;;1.52;;
51475;SDS011;37554;50.362;7.568;2023-10-19T12:03:36;3.83;;;1.33;;
51475;SDS011;37554;50.362;7.568;2023-10-19T12:06:03;2.38;;;1.55;;
51475;SDS011;37554;50.362;7.568;2023-10-19T12:08:31;3.90;;;1.75;;
51475;SDS011;37554;50.362;7.568;2023-10-19T12:10:58;4.88;;;1.63;;
51475;SDS011;37554;50.362;7.568;2023-10-19T12:13:24;3.63;;;1.25;;
51475;SDS011;37554;50.362;7.568;2023-10-19T12:15:50;2.38;;;1.52;;
51475;SDS011;37554;50.362;7.568;2023-10-19T12:18:20;3.70;;;1.70;;
51475;SDS011;37554;50.362;7.568;2023-10-19T12:20:46;3.13;;;2.00;;
51475;SDS011;37554;50.362;7.568;2023-10-19T12:23:13;6.32;;;1.70;;
51475;SDS011;37554;50.362;7.568;2023-10-19T12:25:39;3.28;;;1.70;;
51475;SDS011;37554;50.362;7.568;2023-10-19T12:28:07;2.38;;;1.38;;
51475;SDS011;37554;50.362;7.568;2023-10-19T12:30:33;2.20;;;1.35;;
51475;SDS011;37554;50.362;7.568;2023-10-19T12:33:02;3.38;;;1.25;;
51475;SDS011;37554;50.362;7.568;2023-10-19T12:35:33;1.52;;;1.30;;
51475;SDS011;37554;50.362;7.568;2023-10-19T12:38:10;4.30;;;1.15;;
51475;SDS011;37554;50.362;7.568;2023-10-19T12:40:41;2.53;;;1.23;;
51475;SDS011;37554;50.362;7.568;2023-10-19T12:43:07;3.30;;;1.38;;
51475;SDS011;37554;50.362;7.568;2023-10-19T12:45:35;3.05;;;1.52;;
51475;SDS011;37554;50.362;7.568;2023-10-19T12:48:04;2.65;;;1.40;;
51475;SDS011;37554;50.362;7.568;2023-10-19T12:50:31;3.15;;;1.30;;
51475;SDS011;37554;50.362;7.568;2023-10-19T12:52:59;3.35;;;1.52;;
51475;SDS011;37554;50.362;7.568;2023-10-19T12:55:25;2.97;;;1.20;;
51475;SDS011;37554;50.362;7.568;2023-10-19T12:57:52;3.08;;;1.38;;
51475;SDS011;37554;50.362;7.568;2023-10-19T13:00:18;2.90;;;1.60;;
51475;SDS011;37554;50.362;7.568;2023-10-19T13:03:01;1.40;;;1.30;;
51475;SDS011;37554;50.362;7.568;2023-10-19T13:05:32;4.57;;;1.52;;
51475;SDS011;37554;50.362;7.568;2023-10-19T13:07:58;2.60;;;1.30;;
51475;SDS011;37554;50.362;7.568;2023-10-19T13:10:27;4.00;;;1.23;;
51475;SDS011;37554;50.362;7.568;2023-10-19T13:12:57;2.50;;;1.25;;
51475;SDS011;37554;50.362;7.568;2023-10-19T13:15:31;1.95;;;1.15;;
51475;SDS011;37554;50.362;7.568;2023-10-19T13:17:57;2.85;;;1.35;;
51475;SDS011;37554;50.362;7.568;2023-10-19T13:20:24;2.33;;;1.30;;
51475;SDS011;37554;50.362;7.568;2023-10-19T13:22:51;1.30;;;1.08;;
51475;SDS011;37554;50.362;7.568;2023-10-19T13:25:17;1.83;;;0.82;;
51475;SDS011;37554;50.362;7.568;2023-10-19T13:27:43;1.52;;;1.20;;
51475;SDS011;37554;50.362;7.568;2023-10-19T13:30:11;1.73;;;1.42;;
51475;SDS011;37554;50.362;7.568;2023-10-19T13:32:37;2.88;;;1.20;;
51475;SDS011;37554;50.362;7.568;2023-10-19T13:35:03;2.70;;;1.02;;
51475;SDS011;37554;50.362;7.568;2023-10-19T13:37:29;1.55;;;1.13;;
51475;SDS011;37554;50.362;7.568;2023-10-19T13:39:55;1.40;;;1.10;;
51475;SDS011;37554;50.362;7.568;2023-10-19T13:42:22;2.78;;;0.95;;
51475;SDS011;37554;50.362;7.568;2023-10-19T13:44:47;2.13;;;1.10;;
51475;SDS011;37554;50.362;7.568;2023-10-19T13:47:14;2.30;;;1.20;;
51475;SDS011;37554;50.362;7.568;2023-10-19T13:49:40;1.90;;;0.88;;
51475;SDS011;37554;50.362;7.568;2023-10-19T13:52:06;3.28;;;1.13;;
51475;SDS011;37554;50.362;7.568;2023-10-19T13:54:34;3.40;;;1.60;;
51475;SDS011;37554;50.362;7.568;2023-10-19T13:57:01;1.70;;;1.13;;
51475;SDS011;37554;50.362;7.568;2023-10-19T13:59:30;1.20;;;1.10;;
51475;SDS011;37554;50.362;7.568;2023-10-19T14:01:58;2.30;;;1.20;;
51475;SDS011;37554;50.362;7.568;2023-10-19T14:04:24;1.95;;;1.27;;
51475;SDS011;37554;50.362;7.568;2023-10-19T14:06:49;2.95;;;1.13;;
51475;SDS011;37554;50.362;7.568;2023-10-19T14:09:16;3.95;;;1.00;;
51475;SDS011;37554;50.362;7.568;2023-10-19T14:11:42;3.42;;;1.20;;
51475;SDS011;37554;50.362;7.568;2023-10-19T14:14:09;1.73;;;0.90;;
51475;SDS011;37554;50.362;7.568;2023-10-19T14:16:36;2.42;;;1.27;;
51475;SDS011;37554;50.362;7.568;2023-10-19T14:19:04;4.45;;;0.98;;
51475;SDS011;37554;50.362;7.568;2023-10-19T14:21:29;2.40;;;1.45;;
51475;SDS011;37554;50.362;7.568;2023-10-19T14:23:56;2.00;;;1.30;;
51475;SDS011;37554;50.362;7.568;2023-10-19T14:26:21;3.33;;;1.02;;
51475;SDS011;37554;50.362;7.568;2023-10-19T14:28:47;2.63;;;1.08;;
51475;SDS011;37554;50.362;7.568;2023-10-19T14:31:13;1.90;;;1.30;;
51475;SDS011;37554;50.362;7.568;2023-10-19T14:33:39;2.40;;;1.10;;
51475;SDS011;37554;50.362;7.568;2023-10-19T14:36:05;2.97;;;1.20;;
51475;SDS011;37554;50.362;7.568;2023-10-19T14:38:31;2.55;;;1.40;;
51475;SDS011;37554;50.362;7.568;2023-10-19T14:40:57;2.42;;;1.40;;
51475;SDS011;37554;50.362;7.568;2023-10-19T14:43:23;3.70;;;1.10;;
51475;SDS011;37554;50.362;7.568;2023-10-19T14:45:50;2.65;;;1.13;;
51475;SDS011;37554;50.362;7.568;2023-10-19T14:48:16;2.03;;;1.10;;
51475;SDS011;37554;50.362;7.568;2023-10-19T14:50:44;3.38;;;1.60;;
51475;SDS011;37554;50.362;7.568;2023-10-19T14:53:10;6.05;;;1.45;;
51475;SDS011;37554;50.362;7.568;2023-10-19T14:55:36;1.90;;;1.13;;
51475;SDS011;37554;50.362;7.568;2023-10-19T14:58:02;3.63;;;1.17;;
51475;SDS011;37554;50.362;7.568;2023-10-19T15:00:31;2.28;;;1.08;;
51475;SDS011;37554;50.362;7.568;2023-10-19T15:03:03;3.17;;;1.40;;
51475;SDS011;37554;50.362;7.568;2023-10-19T15:05:32;1.58;;;1.02;;
51475;SDS011;37554;50.362;7.568;2023-10-19T15:08:02;1.98;;;1.15;;
51475;SDS011;37554;50.362;7.568;2023-10-19T15:10:30;2.60;;;1.10;;
51475;SDS011;37554;50.362;7.568;2023-10-19T15:12:56;3.72;;;1.20;;
51475;SDS011;37554;50.362;7.568;2023-10-19T15:15:24;2.75;;;1.20;;